Time;durP1;ratioP1;P1;durP2;ratioP2;P2;SDS_P1;SDS_P2;PMS_P1;PMS_P2;Temp;Humidity;BMP_temperature;BMP_pressure;BME280_temperature;BME280_humidity;BME280_pressure;Samples;Min_cycle;Max_cycle;Signal;HPM_P1;HPM_P2
2022/06/18 00:01:45;;;;;;;8.95;8.15;;;;;;;19.18;68.01;95203.97;5076288;28;20250;-70
2022/06/18 00:04:15;;;;;;;8.70;8.00;;;;;;;19.14;68.51;95208.78;5076451;28;20185;-70
2022/06/18 00:06:47;;;;;;;8.85;8.10;;;;;;;19.09;68.50;95204.38;5075932;28;20197;-73
2022/06/18 00:09:14;;;;;;;9.32;8.63;;;;;;;19.07;68.17;95204.00;5076577;28;20197;-73
2022/06/18 00:14:26;;;;;;;9.10;8.30;;;;;;;19.02;68.22;95201.59;5076191;28;20196;-72
2022/06/18 00:16:52;;;;;;;8.23;7.63;;;;;;;19.01;68.72;95197.22;5076416;28;20616;-72
2022/06/18 00:19:21;;;;;;;9.15;8.50;;;;;;;18.97;68.52;95194.44;5075775;28;20225;-73
2022/06/18 00:21:47;;;;;;;8.02;7.32;;;;;;;19.00;68.59;95198.44;5076770;28;20189;-72
2022/06/18 00:24:16;;;;;;;8.75;8.10;;;;;;;18.98;68.64;95195.22;5058801;28;20205;-72
2022/06/18 00:26:43;;;;;;;8.73;8.02;;;;;;;18.97;68.38;95188.06;5076110;28;20637;-72
2022/06/18 00:29:13;;;;;;;8.77;8.18;;;;;;;18.95;68.72;95185.69;5076066;28;20185;-72
2022/06/18 00:31:40;;;;;;;8.27;7.45;;;;;;;18.92;69.26;95177.31;5075225;28;20197;-72
2022/06/18 00:34:06;;;;;;;8.85;8.25;;;;;;;18.90;69.42;95179.69;5075401;28;20196;-74
2022/06/18 00:36:36;;;;;;;8.60;7.90;;;;;;;18.89;69.32;95178.91;5076663;28;20197;-74
2022/06/18 00:39:04;;;;;;;8.77;8.07;;;;;;;18.88;69.51;95179.28;5078234;28;20276;-74
2022/06/18 00:41:34;;;;;;;8.90;8.20;;;;;;;18.86;69.52;95174.13;5077428;28;20215;-74
2022/06/18 00:44:04;;;;;;;8.38;7.78;;;;;;;18.83;69.42;95179.72;5075204;28;20200;-73
2022/06/18 00:46:35;;;;;;;8.98;8.30;;;;;;;18.79;69.37;95184.53;5075401;28;20177;-73
2022/06/18 00:49:04;;;;;;;8.55;7.95;;;;;;;18.75;69.82;95176.94;5074235;28;20215;-74
2022/06/18 00:51:33;;;;;;;9.07;8.38;;;;;;;18.72;70.39;95182.53;5075379;28;20207;-73
2022/06/18 00:54:06;;;;;;;9.18;8.45;;;;;;;18.68;70.66;95184.50;5075533;28;20200;-73
2022/06/18 00:56:38;;;;;;;8.98;8.18;;;;;;;18.61;70.65;95187.31;5075976;28;20223;-72
2022/06/18 00:59:08;;;;;;;9.20;8.30;;;;;;;18.55;70.45;95180.53;5075076;28;20193;-71
2022/06/18 01:01:40;;;;;;;9.30;8.43;;;;;;;18.48;70.55;95187.75;5074690;28;20197;-71
2022/06/18 01:04:22;;;;;;;8.70;8.00;;;;;;;18.41;70.61;95178.56;5075296;28;20201;-71
2022/06/18 01:06:49;;;;;;;9.27;7.70;;;;;;;18.34;70.55;95175.78;5074673;28;20212;-73
2022/06/18 01:09:18;;;;;;;8.18;7.53;;;;;;;18.32;71.25;95178.19;5077314;28;20208;-73
2022/06/18 01:11:47;;;;;;;8.73;8.13;;;;;;;18.29;71.50;95191.75;5078844;28;20181;-72
2022/06/18 01:14:17;;;;;;;9.00;8.30;;;;;;;18.29;71.72;95191.75;5078324;28;20197;-72
2022/06/18 01:16:44;;;;;;;9.02;8.32;;;;;;;18.30;71.94;95195.34;5078496;28;20197;-72
2022/06/18 01:19:17;;;;;;;8.50;7.75;;;;;;;18.30;71.66;95192.56;5078205;28;20185;-72
2022/06/18 01:21:50;;;;;;;8.55;7.97;;;;;;;18.27;71.54;95193.34;5077783;28;20201;-72
2022/06/18 01:24:19;;;;;;;8.45;7.80;;;;;;;18.20;71.68;95190.56;5077263;28;20204;-72
2022/06/18 01:26:47;;;;;;;8.43;7.63;;;;;;;18.16;71.35;95187.78;5077591;28;20640;-75
2022/06/18 01:29:14;;;;;;;8.50;7.85;;;;;;;18.13;71.74;95193.34;5077862;28;20193;-76
2022/06/18 01:31:41;;;;;;;7.88;7.38;;;;;;;18.11;71.69;95182.56;5077193;28;20666;-73
2022/06/18 01:34:09;;;;;;;9.45;7.60;;;;;;;18.17;70.49;95194.16;5078167;28;20177;-73
2022/06/18 01:36:38;;;;;;;7.85;7.30;;;;;;;18.19;70.24;95186.97;5078425;28;20200;-73
2022/06/18 01:39:08;;;;;;;7.93;7.22;;;;;;;18.23;70.28;95187.78;5077300;28;20201;-73
2022/06/18 01:41:51;;;;;;;7.30;6.80;;;;;;;18.25;69.86;95188.16;5078340;28;20209;-73
2022/06/18 01:44:22;;;;;;;8.00;7.28;;;;;;;18.26;69.52;95178.59;5077826;28;20533;-72
2022/06/18 01:46:49;;;;;;;7.45;6.75;;;;;;;18.25;69.70;95187.38;5077741;28;20601;-72
2022/06/18 01:49:21;;;;;;;6.80;6.30;;;;;;;18.27;68.79;95191.34;5078754;28;20211;-73
2022/06/18 01:51:49;;;;;;;6.93;6.43;;;;;;;18.29;68.78;95190.94;5079828;28;20212;-73
2022/06/18 01:54:20;;;;;;;6.95;6.35;;;;;;;18.27;68.29;95182.97;5080564;28;20208;-73
2022/06/18 01:56:51;;;;;;;7.47;6.97;;;;;;;18.26;67.81;95189.78;5079143;28;20201;-73
2022/06/18 01:59:21;;;;;;;6.88;6.38;;;;;;;18.27;68.05;95190.56;5080876;28;20511;-73
2022/06/18 02:01:49;;;;;;;7.20;6.63;;;;;;;18.26;68.34;95180.56;5079960;28;20201;-73
2022/06/18 02:04:18;;;;;;;6.93;6.43;;;;;;;18.26;68.27;95175.81;5079134;28;20629;-73
2022/06/18 02:06:45;;;;;;;7.28;6.68;;;;;;;18.24;68.53;95183.78;5080636;28;20213;-73
2022/06/18 02:09:14;;;;;;;7.28;6.68;;;;;;;18.23;68.78;95184.97;5080006;28;20189;-73
2022/06/18 02:11:41;;;;;;;7.22;6.72;;;;;;;18.22;68.63;95180.56;5080285;28;20205;-73
2022/06/18 02:14:13;;;;;;;7.53;6.82;;;;;;;18.19;69.07;95180.56;5079808;28;20594;-75
2022/06/18 02:16:43;;;;;;;7.20;6.60;;;;;;;18.19;68.47;95175.81;5077404;28;20204;-74
2022/06/18 02:19:11;;;;;;;7.75;7.15;;;;;;;18.17;69.02;95171.81;5077590;28;20674;-73
2022/06/18 02:21:41;;;;;;;6.93;6.43;;;;;;;18.14;69.00;95172.63;5080773;28;20189;-74
2022/06/18 02:24:08;;;;;;;7.55;6.93;;;;;;;18.10;69.49;95180.19;5079570;28;20192;-73
2022/06/18 02:26:38;;;;;;;6.53;6.10;;;;;;;18.08;69.63;95185.38;5076714;28;20193;-73
2022/06/18 02:29:06;;;;;;;7.25;6.65;;;;;;;18.05;69.52;95181.41;5077975;28;20196;-73
2022/06/18 02:31:36;;;;;;;7.50;6.90;;;;;;;18.01;69.74;95186.16;5077496;28;20660;-74
2022/06/18 02:34:06;;;;;;;7.15;6.57;;;;;;;17.99;69.40;95180.97;5077405;28;20197;-73
2022/06/18 02:36:35;;;;;;;7.35;6.70;;;;;;;17.99;69.43;95183.78;5077127;28;20193;-72
2022/06/18 02:39:12;;;;;;;7.50;6.75;;;;;;;18.00;69.26;95184.56;5076023;28;20238;-72
2022/06/18 02:41:41;;;;;;;7.32;6.45;;;;;;;18.01;69.42;95180.56;5076629;28;20188;-72
2022/06/18 02:44:08;;;;;;;7.45;6.75;;;;;;;18.01;69.24;95180.56;5077677;28;20219;-72
2022/06/18 02:46:36;;;;;;;6.75;6.25;;;;;;;17.99;69.12;95177.41;5076624;28;20189;-72
2022/06/18 02:49:04;;;;;;;6.53;5.93;;;;;;;17.99;69.39;95171.81;5077022;28;20200;-72
2022/06/18 02:51:31;;;;;;;6.78;6.28;;;;;;;17.96;69.46;95173.41;5076360;28;20221;-72
2022/06/18 02:53:58;;;;;;;7.10;6.60;;;;;;;17.96;69.01;95172.59;5076446;28;20199;-73
2022/06/18 02:56:25;;;;;;;6.30;5.70;;;;;;;17.95;67.93;95168.22;5077928;28;20185;-71
2022/06/18 02:58:52;;;;;;;7.20;6.50;;;;;;;17.95;67.87;95171.03;5080034;28;20181;-71
2022/06/18 03:01:21;;;;;;;7.93;7.13;;;;;;;17.95;67.69;95171.81;5077940;28;20272;-74
2022/06/18 03:03:51;;;;;;;7.05;6.45;;;;;;;17.97;67.50;95171.41;5076549;28;20283;-74
2022/06/18 03:06:20;;;;;;;7.18;6.68;;;;;;;17.98;67.28;95179.41;5059333;28;20208;-73
2022/06/18 03:08:48;;;;;;;6.45;5.95;;;;;;;18.00;67.02;95176.19;5076389;28;20197;-72
2022/06/18 03:14:00;;;;;;;7.65;7.00;;;;;;;18.01;66.64;95175.00;5077050;28;20181;-72
2022/06/18 03:16:28;;;;;;;7.22;6.53;;;;;;;17.99;66.60;95172.63;5076107;28;20201;-73
2022/06/18 03:18:58;;;;;;;7.40;6.80;;;;;;;18.01;66.28;95173.03;5076167;28;20234;-74
2022/06/18 03:21:26;;;;;;;7.20;6.60;;;;;;;18.01;66.38;95172.19;5075328;28;20197;-74
2022/06/18 03:23:53;;;;;;;7.68;6.95;;;;;;;18.00;66.58;95179.78;5076127;28;20600;-76
2022/06/18 03:26:20;;;;;;;6.63;6.13;;;;;;;18.01;66.59;95172.19;5075507;28;20233;-75
2022/06/18 03:28:47;;;;;;;7.60;6.90;;;;;;;18.00;66.61;95174.19;5076132;28;20185;-75
2022/06/18 03:31:14;;;;;;;6.95;6.35;;;;;;;18.01;66.82;95188.94;5074278;28;20232;-74
2022/06/18 03:33:41;;;;;;;6.82;6.22;;;;;;;18.02;66.88;95188.56;5075432;28;20232;-74
2022/06/18 03:36:12;;;;;;;7.00;6.28;;;;;;;18.01;67.77;95186.16;5075274;28;20197;-75
2022/06/18 03:38:40;;;;;;;6.88;6.18;;;;;;;17.97;68.13;95185.34;5075070;28;20193;-75
2022/06/18 03:41:08;;;;;;;6.93;6.32;;;;;;;17.96;67.75;95190.16;5074731;28;20193;-75
2022/06/18 03:43:35;;;;;;;6.60;6.10;;;;;;;17.96;67.44;95192.94;5075490;28;20201;-75
2022/06/18 03:46:07;;;;;;;6.43;6.00;;;;;;;17.96;66.70;95186.56;5074992;28;20205;-74
2022/06/18 03:48:40;;;;;;;6.85;6.25;;;;;;;17.95;66.69;95191.34;5075672;28;20181;-74
2022/06/18 03:51:07;;;;;;;5.88;5.38;;;;;;;17.96;66.94;95197.72;5074270;28;20216;-75
2022/06/18 03:53:36;;;;;;;6.55;5.95;;;;;;;17.94;66.92;95195.34;5074854;28;20204;-75
2022/06/18 03:56:04;;;;;;;7.10;6.60;;;;;;;17.94;66.13;95198.13;5075864;28;20173;-74
2022/06/18 03:58:30;;;;;;;7.18;6.57;;;;;;;17.95;66.43;95199.72;5076052;28;20197;-74
2022/06/18 04:00:57;;;;;;;6.97;6.47;;;;;;;17.96;66.45;95197.72;5077368;28;20260;-75
2022/06/18 04:03:24;;;;;;;6.20;5.70;;;;;;;17.96;66.75;95200.50;5076025;28;20213;-75
2022/06/18 04:05:51;;;;;;;6.63;6.00;;;;;;;17.95;66.96;95196.94;5076454;28;20200;-74
2022/06/18 04:08:19;;;;;;;7.63;6.90;;;;;;;17.97;66.98;95204.88;5074692;28;20194;-75
2022/06/18 04:10:48;;;;;;;7.18;6.60;;;;;;;17.96;66.83;95195.72;5074739;28;20225;-75
2022/06/18 04:13:15;;;;;;;6.70;6.20;;;;;;;17.97;66.46;95202.09;5075465;28;20193;-74
2022/06/18 04:15:42;;;;;;;6.20;5.70;;;;;;;17.96;66.91;95198.53;5075208;28;20191;-73
2022/06/18 04:18:10;;;;;;;7.00;6.38;;;;;;;17.95;66.94;95201.72;5074621;28;20204;-73
2022/06/18 04:20:38;;;;;;;6.75;6.00;;;;;;;17.94;67.67;95206.50;5075110;28;20194;-72
2022/06/18 04:23:05;;;;;;;6.93;6.38;;;;;;;17.95;66.96;95210.88;5074812;28;20200;-76
2022/06/18 04:25:32;;;;;;;6.93;6.30;;;;;;;17.97;66.59;95210.47;5073929;28;20228;-76
2022/06/18 04:28:00;;;;;;;6.53;6.00;;;;;;;17.98;66.46;95206.50;5074068;28;20209;-77
2022/06/18 04:30:29;;;;;;;5.53;5.18;;;;;;;17.97;66.34;95210.47;5074711;28;20197;-76
2022/06/18 04:32:56;;;;;;;5.93;5.43;;;;;;;18.00;66.46;95204.91;5075204;28;20189;-75
2022/06/18 04:35:23;;;;;;;6.32;5.72;;;;;;;18.06;66.55;95207.31;5074770;28;20204;-75
2022/06/18 04:37:50;;;;;;;6.05;5.55;;;;;;;18.12;66.03;95203.72;5075600;28;20181;-76
2022/06/18 04:40:19;;;;;;;5.80;5.40;;;;;;;18.18;65.62;95204.91;5074922;28;20185;-76
2022/06/18 04:42:45;;;;;;;7.75;6.05;;;;;;;18.22;65.55;95202.91;5076991;28;20609;-77
2022/06/18 04:45:15;;;;;;;6.15;5.65;;;;;;;18.25;65.22;95204.91;5078188;28;20196;-77
2022/06/18 04:47:42;;;;;;;6.68;6.03;;;;;;;18.21;65.79;95200.53;5078535;28;20192;-76
2022/06/18 04:50:17;;;;;;;6.07;5.57;;;;;;;18.17;66.31;95208.91;5079245;28;20192;-76
2022/06/18 04:52:44;;;;;;;6.05;5.50;;;;;;;18.15;66.36;95210.47;5078291;28;20212;-75
2022/06/18 04:55:11;;;;;;;6.13;5.53;;;;;;;18.12;66.00;95206.53;5077941;28;20201;-75
2022/06/18 04:57:38;;;;;;;6.15;5.30;;;;;;;18.13;65.86;95204.53;5077969;28;20200;-75
2022/06/18 05:00:07;;;;;;;5.97;5.57;;;;;;;18.13;66.10;95201.72;5078026;28;20236;-75
2022/06/18 05:02:36;;;;;;;5.78;5.28;;;;;;;18.14;65.72;95206.09;5078897;28;20238;-76
2022/06/18 05:05:04;;;;;;;5.50;4.95;;;;;;;18.14;65.83;95206.09;5078740;28;20196;-75
2022/06/18 05:07:31;;;;;;;5.68;5.28;;;;;;;18.15;65.96;95210.47;5078758;28;20247;-75
2022/06/18 05:09:58;;;;;;;6.18;5.72;;;;;;;18.15;66.38;95208.50;5078082;28;20189;-76
2022/06/18 05:12:25;;;;;;;6.00;5.50;;;;;;;18.17;65.99;95205.31;5077448;28;20703;-76
2022/06/18 05:14:52;;;;;;;5.40;4.93;;;;;;;18.18;65.92;95209.69;5078302;28;20518;-76
2022/06/18 05:17:21;;;;;;;6.47;5.88;;;;;;;18.20;65.87;95218.47;5078262;28;20656;-72
2022/06/18 05:19:49;;;;;;;6.45;5.93;;;;;;;18.22;66.15;95224.44;5078563;28;20204;-72
2022/06/18 05:22:16;;;;;;;5.95;5.20;;;;;;;18.24;66.35;95222.84;5077920;28;20196;-72
2022/06/18 05:24:43;;;;;;;5.80;5.30;;;;;;;18.25;66.84;95218.06;5078315;28;20305;-72
2022/06/18 05:27:19;;;;;;;6.47;5.95;;;;;;;18.23;66.31;95221.28;5078390;28;20185;-73
2022/06/18 05:29:46;;;;;;;7.18;6.57;;;;;;;18.25;66.78;95223.66;5078099;28;20637;-73
2022/06/18 05:32:12;;;;;;;5.55;5.05;;;;;;;18.33;66.55;95233.63;5078507;28;20213;-73
2022/06/18 05:34:40;;;;;;;5.93;5.53;;;;;;;18.38;66.77;95224.84;5078130;28;20185;-73
2022/06/18 05:37:12;;;;;;;6.13;5.63;;;;;;;18.41;67.17;95228.81;5077092;28;20255;-73
2022/06/18 05:39:39;;;;;;;5.97;5.47;;;;;;;18.43;67.05;95230.03;5077193;28;20510;-74
2022/06/18 05:42:06;;;;;;;5.88;5.45;;;;;;;18.47;66.55;95230.03;5077969;28;20189;-73
2022/06/18 05:44:33;;;;;;;6.32;5.72;;;;;;;18.49;67.13;95224.84;5078189;28;20192;-73
2022/06/18 05:47:00;;;;;;;5.75;5.25;;;;;;;18.55;66.29;95223.22;5077368;28;20209;-73
2022/06/18 05:49:27;;;;;;;6.85;5.40;;;;;;;18.59;66.39;95226.03;5077929;28;20193;-73
2022/06/18 05:51:54;;;;;;;5.65;5.18;;;;;;;18.59;66.26;95226.03;5077514;28;20209;-73
2022/06/18 05:54:22;;;;;;;5.43;5.03;;;;;;;18.61;65.96;95230.00;5077041;28;20204;-73
2022/06/18 05:56:50;;;;;;;5.95;5.22;;;;;;;18.67;65.10;95225.63;5076855;28;20227;-73
2022/06/18 05:59:17;;;;;;;5.35;4.85;;;;;;;18.70;65.00;95222.03;5076737;28;20197;-73
2022/06/18 06:01:43;;;;;;;5.63;5.22;;;;;;;18.73;64.51;95224.03;5076784;28;20204;-73
2022/06/18 06:04:11;;;;;;;5.72;5.22;;;;;;;18.77;64.35;95221.22;5077357;28;20621;-73
2022/06/18 06:06:37;;;;;;;5.30;4.90;;;;;;;18.77;64.27;95232.41;5077459;28;20181;-73
2022/06/18 06:09:04;;;;;;;5.60;5.10;;;;;;;18.75;65.22;95224.44;5077370;28;20246;-73
2022/06/18 06:11:32;;;;;;;5.72;5.32;;;;;;;18.77;64.94;95232.41;5077446;28;20205;-73
2022/06/18 06:14:00;;;;;;;5.40;5.00;;;;;;;18.76;64.82;95234.41;5077527;28;20201;-73
2022/06/18 06:16:28;;;;;;;5.72;5.22;;;;;;;18.73;65.33;95238.00;5077446;28;20203;-73
2022/06/18 06:18:55;;;;;;;5.50;5.10;;;;;;;18.74;65.88;95231.22;5077404;28;20197;-73
2022/06/18 06:21:40;;;;;;;7.13;6.53;;;;;;;18.80;65.49;95228.81;5077305;28;20181;-73
2022/06/18 06:24:07;;;;;;;6.68;5.97;;;;;;;18.81;66.20;95224.84;5076586;28;20193;-74
2022/06/18 06:26:36;;;;;;;5.70;5.22;;;;;;;18.87;65.48;95225.22;5076435;28;20307;-74
2022/06/18 06:29:04;;;;;;;5.28;4.85;;;;;;;18.88;65.10;95221.22;5076229;28;20258;-73
2022/06/18 06:31:31;;;;;;;5.47;5.07;;;;;;;18.87;64.69;95216.81;5076120;28;20220;-73
2022/06/18 06:33:57;;;;;;;5.75;5.25;;;;;;;18.85;64.85;95217.25;5077120;28;20208;-73
2022/06/18 06:36:24;;;;;;;5.28;4.88;;;;;;;18.84;64.30;95217.63;5076047;28;20196;-73
2022/06/18 06:38:51;;;;;;;4.72;4.43;;;;;;;18.82;65.02;95225.63;5077095;28;20192;-74
2022/06/18 06:41:20;;;;;;;5.88;5.25;;;;;;;18.82;65.09;95226.44;5076030;28;20189;-74
2022/06/18 06:43:49;;;;;;;5.22;4.85;;;;;;;18.87;65.26;95231.59;5076683;28;20189;-74
2022/06/18 06:46:16;;;;;;;5.20;4.80;;;;;;;18.89;64.49;95232.00;5075956;28;20189;-74
2022/06/18 06:48:43;;;;;;;5.00;4.60;;;;;;;18.91;64.48;95235.16;5076114;28;20250;-74
2022/06/18 06:51:12;;;;;;;5.68;5.18;;;;;;;18.94;64.15;95228.00;5076648;28;20185;-74
2022/06/18 06:53:39;;;;;;;6.88;4.82;;;;;;;18.96;64.54;95231.97;5076485;28;20586;-74
2022/06/18 06:58:51;;;;;;;4.93;4.53;;;;;;;18.98;64.62;95229.56;5076449;28;20288;-74
2022/06/18 07:01:18;;;;;;;5.35;4.78;;;;;;;19.03;64.74;95225.59;5075584;28;20201;-74
2022/06/18 07:03:45;;;;;;;6.15;5.40;;;;;;;19.07;64.81;95225.56;5075643;28;20197;-74
2022/06/18 07:06:13;;;;;;;5.80;5.40;;;;;;;19.07;64.36;95229.16;5075096;28;20189;-74
2022/06/18 07:08:40;;;;;;;5.95;5.45;;;;;;;19.09;63.89;95229.53;5075530;28;20201;-73
2022/06/18 07:11:07;;;;;;;5.95;5.47;;;;;;;19.08;63.41;95230.75;5075806;28;20628;-74
2022/06/18 07:13:34;;;;;;;5.47;5.07;;;;;;;19.09;63.75;95223.94;5076065;28;20182;-74
2022/06/18 07:16:02;;;;;;;5.82;4.90;;;;;;;19.12;63.12;95216.75;5075113;28;20215;-74
2022/06/18 07:18:32;;;;;;;6.13;5.47;;;;;;;19.14;62.85;95215.16;5075387;28;20197;-72
2022/06/18 07:20:59;;;;;;;6.05;5.65;;;;;;;19.16;63.33;95228.72;5074987;28;20640;-76
2022/06/18 07:23:26;;;;;;;6.60;6.05;;;;;;;19.16;62.97;95218.31;5075387;28;20205;-75
2022/06/18 07:25:53;;;;;;;5.43;4.93;;;;;;;19.19;62.04;95225.91;5075948;28;20248;-72
2022/06/18 07:28:20;;;;;;;4.88;4.47;;;;;;;19.20;59.85;95226.69;5075449;28;20201;-72
2022/06/18 07:30:47;;;;;;;4.97;4.68;;;;;;;19.22;60.48;95225.09;5075714;28;20204;-72
2022/06/18 07:33:18;;;;;;;5.03;4.63;;;;;;;19.28;60.63;95225.50;5075071;28;20208;-72
2022/06/18 07:35:45;;;;;;;5.32;4.93;;;;;;;19.33;60.72;95235.47;5076198;28;20185;-73
2022/06/18 07:38:12;;;;;;;5.97;5.38;;;;;;;19.38;60.97;95223.84;5075388;28;20208;-73
2022/06/18 07:40:44;;;;;;;5.30;4.90;;;;;;;19.44;60.93;95225.03;5075733;28;20199;-73
2022/06/18 07:43:15;;;;;;;4.93;4.63;;;;;;;19.47;59.73;95219.41;5076048;28;20181;-73
2022/06/18 07:45:44;;;;;;;5.85;5.28;;;;;;;19.48;59.95;95220.19;5076248;28;20181;-73
2022/06/18 07:48:11;;;;;;;5.43;5.03;;;;;;;19.49;60.23;95214.19;5076337;28;20189;-73
2022/06/18 07:50:42;;;;;;;5.28;4.82;;;;;;;19.54;59.95;95221.38;5075861;28;20185;-73
2022/06/18 07:53:10;;;;;;;5.60;5.15;;;;;;;19.56;59.37;95215.38;5074896;28;20217;-73
2022/06/18 07:55:36;;;;;;;5.45;4.95;;;;;;;19.60;59.16;95219.72;5076100;28;20178;-74
2022/06/18 07:58:03;;;;;;;5.30;4.90;;;;;;;19.64;58.88;95220.53;5075626;28;20196;-74
2022/06/18 08:00:30;;;;;;;6.10;5.70;;;;;;;19.65;58.90;95212.97;5076271;28;20185;-73
2022/06/18 08:02:57;;;;;;;5.88;5.38;;;;;;;19.67;58.31;95214.13;5075439;28;20197;-73
2022/06/18 08:05:27;;;;;;;5.85;5.45;;;;;;;19.68;57.78;95224.13;5075057;28;20185;-73
2022/06/18 08:07:55;;;;;;;5.50;5.10;;;;;;;19.70;56.80;95207.72;5075856;28;20215;-73
2022/06/18 08:10:22;;;;;;;6.15;5.55;;;;;;;19.72;56.47;95218.53;5075741;28;20188;-73
2022/06/18 08:12:49;;;;;;;5.85;5.35;;;;;;;19.74;57.10;95221.69;5074953;28;20220;-74
2022/06/18 08:15:16;;;;;;;5.97;5.47;;;;;;;19.78;57.87;95213.28;5075275;28;20189;-73
2022/06/18 08:17:43;;;;;;;5.63;5.13;;;;;;;19.85;58.26;95213.22;5074643;28;20221;-73
2022/06/18 08:20:10;;;;;;;6.18;5.57;;;;;;;19.91;58.48;95217.19;5075482;28;20196;-73
2022/06/18 08:22:39;;;;;;;5.20;4.80;;;;;;;19.95;58.04;95210.38;5075861;28;20185;-73
2022/06/18 08:25:10;;;;;;;5.25;4.85;;;;;;;20.01;56.94;95210.75;5074565;28;20247;-73
2022/06/18 08:27:53;;;;;;;5.63;5.13;;;;;;;20.12;58.73;95219.06;5114097;27;20637;-74
2022/06/18 08:30:20;;;;;;;5.22;4.82;;;;;;;20.29;58.78;95212.50;5113458;27;20206;-73
2022/06/18 08:32:47;;;;;;;5.57;5.18;;;;;;;20.38;57.87;95212.84;5112576;28;20199;-73
2022/06/18 08:35:13;;;;;;;5.45;5.07;;;;;;;20.46;58.13;95207.19;5112158;28;20200;-74
2022/06/18 08:37:41;;;;;;;5.78;5.28;;;;;;;20.51;57.66;95212.34;5113006;28;20188;-74
2022/06/18 08:43:03;;;;;;;5.72;5.32;;;;;;;20.81;58.62;95206.09;5112413;27;20211;-74
2022/06/18 08:45:35;;;;;;;5.28;4.88;;;;;;;20.87;57.14;95198.78;5112556;28;20183;-74
2022/06/18 08:48:10;;;;;;;5.20;4.78;;;;;;;20.88;57.28;95192.78;5112991;28;20200;-74
2022/06/18 08:50:57;;;;;;;6.10;5.60;;;;;;;20.96;58.46;95195.50;5112609;28;20181;-74
2022/06/18 08:53:55;;;;;;;5.93;5.32;;;;;;;21.01;58.90;95192.25;5112706;27;20195;-74
2022/06/18 08:56:30;;;;;;;5.78;5.30;;;;;;;21.14;57.65;95182.88;5111355;28;20187;-74
2022/06/18 08:59:09;;;;;;;5.18;4.78;;;;;;;21.29;56.15;95185.50;5112376;28;20260;-73
2022/06/18 09:01:40;;;;;;;5.50;5.03;;;;;;;21.42;56.46;95182.97;5111560;28;20192;-74
2022/06/18 09:04:15;;;;;;;6.25;5.65;;;;;;;21.54;57.18;95190.84;5111428;28;20200;-73
2022/06/18 09:06:54;;;;;;;5.20;4.72;;;;;;;21.76;56.78;95186.50;5145712;27;20239;-73
2022/06/18 09:09:26;;;;;;;5.75;5.32;;;;;;;21.92;55.31;95185.88;5112086;28;20195;-73
2022/06/18 09:12:02;;;;;;;5.28;4.88;;;;;;;22.02;54.39;95181.31;5112025;28;20519;-73
2022/06/18 09:14:35;;;;;;;5.20;4.80;;;;;;;22.06;54.84;95174.41;5112471;28;20194;-73
2022/06/18 09:17:09;;;;;;;5.40;5.00;;;;;;;21.99;55.18;95165.31;5111453;28;20268;-73
2022/06/18 09:19:37;;;;;;;4.88;4.57;;;;;;;21.91;56.13;95178.69;5112229;28;20199;-74
2022/06/18 09:22:06;;;;;;;5.85;5.38;;;;;;;22.01;58.09;95174.91;5112149;28;20200;-73
2022/06/18 09:24:37;;;;;;;5.60;5.10;;;;;;;21.99;55.15;95168.91;5111872;28;20603;-73
2022/06/18 09:27:06;;;;;;;4.95;4.40;;;;;;;21.91;55.81;95177.88;5111476;28;20255;-74
2022/06/18 09:29:38;;;;;;;6.90;4.78;;;;;;;21.83;54.61;95183.59;5111774;28;20180;-74
2022/06/18 09:32:07;;;;;;;5.28;4.88;;;;;;;21.87;55.44;95187.16;5111016;28;20200;-74
2022/06/18 09:34:38;;;;;;;5.45;5.05;;;;;;;21.99;53.57;95191.38;5111928;28;20191;-74
2022/06/18 09:37:07;;;;;;;5.35;4.85;;;;;;;21.81;54.78;95191.63;5110788;28;20184;-74
2022/06/18 09:39:38;;;;;;;4.80;4.40;;;;;;;21.62;54.82;95186.72;5097964;28;20200;-73
2022/06/18 09:42:08;;;;;;;5.15;4.75;;;;;;;21.49;56.27;95188.47;5098058;28;20511;-73
2022/06/18 09:44:39;;;;;;;4.80;4.40;;;;;;;21.36;55.70;95191.84;5097220;28;20192;-73
2022/06/18 09:47:12;;;;;;;4.65;4.25;;;;;;;21.26;55.90;95187.13;5097665;28;20636;-74
2022/06/18 09:49:39;;;;;;;4.65;4.25;;;;;;;21.20;55.82;95190.81;5097285;28;20212;-73
2022/06/18 09:52:12;;;;;;;5.32;4.70;;;;;;;21.20;56.10;95190.81;5097621;28;20196;-73
2022/06/18 09:54:42;;;;;;;5.30;4.80;;;;;;;21.25;56.76;95190.38;5097599;28;20624;-73
2022/06/18 09:57:09;;;;;;;4.70;4.30;;;;;;;21.27;56.78;95185.13;5096727;28;20208;-73
2022/06/18 09:59:42;;;;;;;5.05;4.65;;;;;;;21.30;56.57;95189.91;5097875;28;20297;-74
2022/06/18 10:02:18;;;;;;;4.85;4.50;;;;;;;21.32;56.28;95193.09;5096745;28;20192;-73
2022/06/18 10:07:30;;;;;;;4.97;4.57;;;;;;;21.21;55.71;95196.03;5097491;28;20199;-73
2022/06/18 10:10:01;;;;;;;4.53;4.22;;;;;;;21.11;54.90;95197.72;5097685;28;20541;-74
2022/06/18 10:12:32;;;;;;;5.05;4.07;;;;;;;21.00;55.06;95187.84;5097691;28;20188;-73
2022/06/18 10:15:02;;;;;;;4.55;4.25;;;;;;;20.94;55.35;95190.31;5130841;27;20226;-73
2022/06/18 10:17:39;;;;;;;5.18;4.47;;;;;;;20.87;55.71;95182.75;5097310;28;20195;-74
2022/06/18 10:20:10;;;;;;;4.43;4.10;;;;;;;20.86;55.98;95188.81;5096545;28;20196;-74
2022/06/18 10:22:43;;;;;;;4.53;4.15;;;;;;;20.87;56.34;95185.56;5097422;28;20209;-73
2022/06/18 10:25:19;;;;;;;5.53;5.03;;;;;;;20.90;56.42;95175.53;5096191;28;20230;-73
2022/06/18 10:27:50;;;;;;;5.30;4.90;;;;;;;20.93;56.47;95166.31;5096408;28;20224;-74
2022/06/18 10:30:22;;;;;;;5.25;4.75;;;;;;;20.96;57.02;95171.06;5097070;28;20616;-73
2022/06/18 10:32:54;;;;;;;5.10;4.70;;;;;;;20.98;56.52;95160.22;5097294;28;20246;-74
2022/06/18 10:35:38;;;;;;;5.88;5.38;;;;;;;21.01;56.07;95172.63;5129615;27;20276;-74
2022/06/18 10:38:18;;;;;;;5.43;4.95;;;;;;;21.03;56.14;95171.00;5097325;28;20212;-73
2022/06/18 10:40:51;;;;;;;5.78;5.28;;;;;;;21.02;56.28;95183.41;5096787;28;20509;-74
2022/06/18 10:44:05;;;;;;;5.50;5.00;;;;;;;20.98;56.67;95185.47;5096023;28;20299;-73
2022/06/18 10:46:33;;;;;;;5.65;5.15;;;;;;;20.93;57.63;95194.34;5075015;28;20220;-73
2022/06/18 10:49:02;;;;;;;8.35;7.53;;;;;;;20.85;60.06;95210.44;5090912;28;20216;-73
2022/06/18 10:51:34;;;;;;;9.52;8.07;;;;;;;20.61;59.95;95245.88;5095775;28;20192;-73
2022/06/18 10:54:02;;;;;;;6.50;5.80;;;;;;;20.30;61.21;95228.13;5096571;28;20185;-73
2022/06/18 10:56:48;;;;;;;8.18;5.30;;;;;;;19.86;61.65;95215.63;5096196;28;20211;-74
2022/06/18 10:59:15;;;;;;;5.40;5.00;;;;;;;19.57;62.86;95214.97;5095738;28;20204;-73
2022/06/18 11:01:46;;;;;;;5.88;5.38;;;;;;;19.39;64.70;95212.25;5096373;28;20245;-74
2022/06/18 11:04:21;;;;;;;4.95;4.55;;;;;;;19.34;65.71;95221.06;5095705;28;20202;-74
2022/06/18 11:06:50;;;;;;;4.72;4.43;;;;;;;19.24;66.60;95216.31;5095763;28;20216;-74
2022/06/18 11:09:22;;;;;;;5.20;4.70;;;;;;;19.26;67.29;95215.91;5095603;28;20222;-74
2022/06/18 11:11:53;;;;;;;5.47;4.97;;;;;;;19.28;66.37;95231.09;5096046;28;20192;-74
2022/06/18 11:14:20;;;;;;;5.75;4.88;;;;;;;19.29;67.70;95229.88;5095972;28;20196;-73
2022/06/18 11:16:51;;;;;;;5.75;5.25;;;;;;;19.24;69.70;95236.69;5095015;28;20656;-73
2022/06/18 11:19:20;;;;;;;7.40;6.22;;;;;;;19.17;71.05;95233.94;5095380;28;20196;-73
2022/06/18 11:21:47;;;;;;;5.82;5.40;;;;;;;19.14;69.79;95226.34;5094764;28;20208;-73
2022/06/18 11:24:24;;;;;;;6.10;5.63;;;;;;;19.12;69.56;95225.16;5095307;28;20200;-74
2022/06/18 11:26:57;;;;;;;6.05;5.45;;;;;;;19.09;69.75;95228.75;5095781;28;20263;-74
2022/06/18 11:29:31;;;;;;;6.25;5.50;;;;;;;19.07;69.70;95222.78;5096074;28;20209;-74
2022/06/18 11:32:02;;;;;;;5.72;5.22;;;;;;;19.06;69.60;95227.53;5096113;28;20183;-73
2022/06/18 11:34:30;;;;;;;7.07;5.88;;;;;;;18.99;69.29;95225.59;5095728;28;20193;-73
2022/06/18 11:36:58;;;;;;;6.55;5.60;;;;;;;18.96;68.56;95217.22;5094894;28;20200;-74
2022/06/18 11:39:30;;;;;;;6.35;5.75;;;;;;;18.94;68.67;95219.59;5094775;28;20536;-74
2022/06/18 11:42:00;;;;;;;5.72;5.22;;;;;;;18.96;68.77;95217.22;5095063;28;20193;-74
2022/06/18 11:44:30;;;;;;;6.43;5.72;;;;;;;19.03;70.79;95220.00;5094650;28;20253;-74
2022/06/18 11:47:02;;;;;;;6.55;5.95;;;;;;;19.22;73.35;95227.09;5094944;28;20220;-74
2022/06/18 11:49:31;;;;;;;6.95;6.35;;;;;;;19.45;72.95;95230.19;5094682;28;20547;-73
2022/06/18 11:52:03;;;;;;;6.85;6.25;;;;;;;19.69;72.94;95222.13;5095635;28;20257;-73
2022/06/18 11:54:35;;;;;;;6.78;6.07;;;;;;;19.91;73.36;95234.78;5094904;28;20212;-74
2022/06/18 11:57:06;;;;;;;6.40;5.80;;;;;;;20.13;71.12;95229.03;5095003;28;20184;-74
2022/06/18 11:59:38;;;;;;;6.18;5.68;;;;;;;20.28;71.51;95224.94;5095252;28;20203;-74